Time;durP1;ratioP1;P1;durP2;ratioP2;P2;SDS_P1;SDS_P2;PMS_P1;PMS_P2;Temp;Humidity;BMP_temperature;BMP_pressure;BME280_temperature;BME280_humidity;BME280_pressure;Samples;Min_cycle;Max_cycle;Signal;HPM_P1;HPM_P2
2022/04/02 00:01:26;;;;;;;;;;;0.30;99.90;;;;;;5053120;28;20534;-61
2022/04/02 00:03:54;;;;;;;;;;;0.20;99.90;;;;;;5053126;28;20019;-62
2022/04/02 00:06:20;;;;;;;;;;;0.30;99.90;;;;;;5052789;28;20027;-61
2022/04/02 00:08:47;;;;;;;;;;;0.30;99.90;;;;;;5053003;28;19998;-61
2022/04/02 00:11:13;;;;;;;;;;;0.30;99.90;;;;;;5052651;28;19955;-62
2022/04/02 00:13:40;;;;;;;;;;;0.30;99.90;;;;;;5052941;28;20294;-60
2022/04/02 00:16:07;;;;;;;;;;;0.30;99.90;;;;;;5052323;28;20398;-61
2022/04/02 00:18:34;;;;;;;;;;;0.30;99.90;;;;;;5053296;28;19998;-61
2022/04/02 00:21:02;;;;;;;;;;;0.30;99.90;;;;;;5052610;28;19967;-61
2022/04/02 00:23:39;;;;;;;;;;;0.30;99.90;;;;;;5052991;28;19920;-62
2022/04/02 00:26:06;;;;;;;;;;;0.30;99.90;;;;;;5052465;28;20011;-61
2022/04/02 00:28:34;;;;;;;;;;;0.30;99.90;;;;;;5052852;28;19927;-62
2022/04/02 00:31:00;;;;;;;;;;;0.30;99.90;;;;;;5052834;28;19921;-59
2022/04/02 00:33:27;;;;;;;;;;;0.30;99.90;;;;;;5051573;28;19929;-61
2022/04/02 00:35:54;;;;;;;;;;;0.30;99.90;;;;;;5052079;28;19920;-60
2022/04/02 00:38:22;;;;;;;;;;;0.30;99.90;;;;;;5052674;28;20066;-61
2022/04/02 00:40:48;;;;;;;;;;;0.30;99.90;;;;;;5052351;28;20387;-61
2022/04/02 00:43:24;;;;;;;;;;;0.20;99.90;;;;;;5052544;28;19924;-60
2022/04/02 00:45:52;;;;;;;;;;;0.20;99.90;;;;;;5051989;28;19920;-61
2022/04/02 00:48:19;;;;;;;;;;;0.20;99.90;;;;;;5052336;28;20029;-61
2022/04/02 00:50:45;;;;;;;;;;;0.20;99.90;;;;;;5052212;28;20036;-60
2022/04/02 00:53:12;;;;;;;;;;;0.20;99.90;;;;;;5052554;28;19947;-62
2022/04/02 00:55:41;;;;;;;;;;;0.20;99.90;;;;;;5052131;28;20003;-60
2022/04/02 00:58:08;;;;;;;;;;;0.20;99.90;;;;;;5052341;28;19929;-62
2022/04/02 01:00:35;;;;;;;;;;;0.20;99.90;;;;;;5052221;28;20583;-62
2022/04/02 01:03:01;;;;;;;;;;;0.20;99.90;;;;;;5052282;28;19974;-62
2022/04/02 01:05:28;;;;;;;;;;;0.20;99.90;;;;;;5052402;28;19990;-62
2022/04/02 01:07:55;;;;;;;;;;;0.30;99.90;;;;;;5051925;28;19921;-62
2022/04/02 01:10:21;;;;;;;;;;;0.30;99.90;;;;;;5052388;28;19921;-62
2022/04/02 01:12:49;;;;;;;;;;;0.30;99.90;;;;;;5052343;28;19921;-62
2022/04/02 01:15:16;;;;;;;;;;;0.30;99.90;;;;;;5052489;28;19974;-61
2022/04/02 01:17:43;;;;;;;;;;;0.30;44.90;;;;;;5051779;28;19920;-61
2022/04/02 01:20:10;;;;;;;;;;;0.30;1.00;;;;;;5052437;28;20401;-59
2022/04/02 01:22:38;;;;;;;;;;;0.30;1.00;;;;;;5052333;28;19920;-60
2022/04/02 01:25:05;;;;;;;;;;;0.30;1.00;;;;;;5052188;28;19921;-61
2022/04/02 01:27:32;;;;;;;;;;;0.30;1.00;;;;;;5051684;28;19964;-58
2022/04/02 01:29:58;;;;;;;;;;;0.30;1.00;;;;;;5051734;28;20406;-59
2022/04/02 01:32:25;;;;;;;;;;;0.30;1.00;;;;;;5052206;28;19921;-59
2022/04/02 01:34:52;;;;;;;;;;;0.30;1.00;;;;;;5051919;28;19921;-59
2022/04/02 01:37:18;;;;;;;;;;;0.30;1.00;;;;;;5051751;28;19925;-61
2022/04/02 01:39:46;;;;;;;;;;;0.30;1.00;;;;;;5051962;28;20338;-62
2022/04/02 01:42:14;;;;;;;;;;;0.30;1.00;;;;;;5051689;28;19921;-62
2022/04/02 01:44:44;;;;;;;;;;;0.30;1.00;;;;;;5054396;28;19920;-60
2022/04/02 01:47:10;;;;;;;;;;;0.30;1.00;;;;;;5055518;28;19921;-62
2022/04/02 01:49:37;;;;;;;;;;;0.30;1.00;;;;;;5056060;28;19920;-62
2022/04/02 01:52:04;;;;;;;;;;;0.30;1.00;;;;;;5055597;28;19921;-62
2022/04/02 01:54:30;;;;;;;;;;;0.30;1.00;;;;;;5055909;28;19920;-61
2022/04/02 01:56:58;;;;;;;;;;;0.30;1.00;;;;;;5055220;28;19924;-62
2022/04/02 01:59:25;;;;;;;;;;;0.30;99.90;;;;;;5055600;28;20441;-60
2022/04/02 02:01:51;;;;;;;;;;;0.30;99.90;;;;;;5056421;28;19921;-61
2022/04/02 02:04:18;;;;;;;;;;;0.30;1.00;;;;;;5055657;28;20360;-60
2022/04/02 02:06:45;;;;;;;;;;;0.30;99.90;;;;;;5055543;28;19950;-61
2022/04/02 02:09:11;;;;;;;;;;;0.30;99.90;;;;;;5055455;28;20020;-60
2022/04/02 02:11:39;;;;;;;;;;;0.30;99.90;;;;;;5056413;28;19974;-60
2022/04/02 02:14:08;;;;;;;;;;;0.30;99.90;;;;;;5055349;28;19921;-61
2022/04/02 02:16:34;;;;;;;;;;;0.30;99.90;;;;;;5054793;28;20418;-61
2022/04/02 02:19:01;;;;;;;;;;;0.30;99.90;;;;;;5056275;28;19936;-58
2022/04/02 02:21:27;;;;;;;;;;;0.30;99.90;;;;;;5056720;28;20329;-62
2022/04/02 02:23:54;;;;;;;;;;;0.30;98.10;;;;;;5055084;28;19967;-62
2022/04/02 02:26:20;;;;;;;;;;;0.30;1.00;;;;;;5054346;28;19925;-58
2022/04/02 02:28:48;;;;;;;;;;;0.30;41.50;;;;;;5055690;28;20012;-62
2022/04/02 02:31:16;;;;;;;;;;;0.30;1.00;;;;;;5055195;28;19927;-61
2022/04/02 02:36:38;;;;;;;;;;;0.30;29.40;;;;;;5012522;28;20350;-58
2022/04/02 02:39:04;;;;;;;;;;;0.30;1.00;;;;;;5044325;28;19954;-60
2022/04/02 02:41:31;;;;;;;;;;;0.30;99.90;;;;;;5054889;28;20345;-59
2022/04/02 02:43:58;;;;;;;;;;;0.20;99.90;;;;;;5054711;28;20015;-59
2022/04/02 02:46:25;;;;;;;;;;;0.20;99.90;;;;;;5054328;28;19975;-59
2022/04/02 02:48:52;;;;;;;;;;;0.10;99.90;;;;;;5054514;28;20365;-59
2022/04/02 02:51:18;;;;;;;;;;;0.10;99.90;;;;;;5054503;28;19921;-60
2022/04/02 02:53:45;;;;;;;;;;;0.20;1.00;;;;;;5054765;28;20011;-61
2022/04/02 02:56:12;;;;;;;;;;;0.10;99.90;;;;;;5052934;28;19925;-58
2022/04/02 02:58:39;;;;;;;;;;;0.10;99.90;;;;;;5054591;28;20338;-60
2022/04/02 03:01:06;;;;;;;;;;;0.20;93.60;;;;;;5054154;28;19972;-59
2022/04/02 03:03:34;;;;;;;;;;;0.20;99.90;;;;;;5054293;28;19920;-59
2022/04/02 03:06:00;;;;;;;;;;;0.20;99.90;;;;;;5053606;28;19925;-60
2022/04/02 03:08:27;;;;;;;;;;;0.10;1.00;;;;;;5054266;28;20383;-57
2022/04/02 03:10:54;;;;;;;;;;;0.10;33.40;;;;;;5054335;28;19924;-60
2022/04/02 03:13:21;;;;;;;;;;;0.10;99.90;;;;;;5053908;28;20395;-61
2022/04/02 03:15:48;;;;;;;;;;;0.10;99.90;;;;;;5054152;28;19956;-60
2022/04/02 03:18:14;;;;;;;;;;;0.10;99.90;;;;;;5053554;28;20346;-61
2022/04/02 03:20:42;;;;;;;;;;;0.10;1.00;;;;;;5053843;28;19925;-61
2022/04/02 03:23:09;;;;;;;;;;;0.10;76.80;;;;;;5054027;28;19921;-63
2022/04/02 03:25:35;;;;;;;;;;;0.10;27.80;;;;;;5054108;28;20402;-58
2022/04/02 03:28:03;;;;;;;;;;;0.10;99.90;;;;;;5053995;28;20295;-61
2022/04/02 03:30:30;;;;;;;;;;;0.10;91.70;;;;;;5053714;28;20272;-61
2022/04/02 03:32:57;;;;;;;;;;;0.10;99.90;;;;;;5053608;28;19921;-61
2022/04/02 03:35:24;;;;;;;;;;;0.10;17.50;;;;;;5053722;28;19928;-61
2022/04/02 03:37:53;;;;;;;;;;;0.10;99.90;;;;;;5053408;28;19921;-59
2022/04/02 03:40:21;;;;;;;;;;;0.10;88.80;;;;;;5053463;28;20306;-60
2022/04/02 03:42:48;;;;;;;;;;;0.10;99.90;;;;;;5053650;28;19966;-59
2022/04/02 03:45:16;;;;;;;;;;;0.10;1.00;;;;;;5053583;28;19921;-59
2022/04/02 03:47:43;;;;;;;;;;;0.10;99.90;;;;;;5052826;28;19920;-61
2022/04/02 03:50:10;;;;;;;;;;;0.10;99.90;;;;;;5053375;28;19924;-61
2022/04/02 03:52:36;;;;;;;;;;;0.10;29.90;;;;;;5053413;28;20329;-60
2022/04/02 03:55:05;;;;;;;;;;;0.10;99.90;;;;;;5053608;28;19925;-58
2022/04/02 03:57:33;;;;;;;;;;;0.10;99.90;;;;;;5052813;28;19963;-61
2022/04/02 04:00:00;;;;;;;;;;;0.10;1.00;;;;;;5053275;28;20325;-61
2022/04/02 04:02:26;;;;;;;;;;;0.00;1.00;;;;;;5053028;28;19924;-60
2022/04/02 04:04:53;;;;;;;;;;;0.10;99.90;;;;;;5053220;28;19947;-61
2022/04/02 04:07:19;;;;;;;;;;;0.10;82.20;;;;;;5052461;28;19943;-61
2022/04/02 04:09:46;;;;;;;;;;;0.10;99.90;;;;;;5053060;28;19921;-61
2022/04/02 04:12:17;;;;;;;;;;;0.10;1.00;;;;;;5053032;28;20295;-61
2022/04/02 04:14:43;;;;;;;;;;;0.00;1.00;;;;;;5052781;28;20387;-60
2022/04/02 04:17:11;;;;;;;;;;;0.10;99.90;;;;;;5052316;28;19925;-60
2022/04/02 04:19:37;;;;;;;;;;;0.10;1.00;;;;;;5053009;28;19927;-61
2022/04/02 04:22:06;;;;;;;;;;;0.10;66.60;;;;;;5052763;28;19966;-61
2022/04/02 04:24:32;;;;;;;;;;;0.10;1.00;;;;;;5052880;28;19921;-61
2022/04/02 04:26:59;;;;;;;;;;;0.10;1.00;;;;;;5052230;28;20295;-61
2022/04/02 04:29:27;;;;;;;;;;;0.10;1.00;;;;;;5052616;28;19925;-60
2022/04/02 04:31:53;;;;;;;;;;;0.00;99.90;;;;;;5052735;28;19921;-60
2022/04/02 04:34:20;;;;;;;;;;;0.00;99.90;;;;;;5052800;28;19979;-61
2022/04/02 04:36:47;;;;;;;;;;;0.10;99.90;;;;;;5052363;28;19974;-62
2022/04/02 04:39:13;;;;;;;;;;;0.00;99.90;;;;;;5052693;28;19928;-61
2022/04/02 04:41:41;;;;;;;;;;;0.00;1.00;;;;;;5052489;28;19921;-61
2022/04/02 04:44:07;;;;;;;;;;;0.00;99.90;;;;;;5052379;28;19960;-60
2022/04/02 04:46:35;;;;;;;;;;;0.00;99.90;;;;;;5052218;28;19920;-61
2022/04/02 04:49:02;;;;;;;;;;;0.00;1.00;;;;;;5052210;28;19925;-61
2022/04/02 04:51:29;;;;;;;;;;;0.00;53.10;;;;;;5052492;28;19966;-61
2022/04/02 04:53:55;;;;;;;;;;;0.00;99.90;;;;;;5052290;28;19947;-61
2022/04/02 04:56:22;;;;;;;;;;;0.00;99.90;;;;;;5051795;28;19921;-59
2022/04/02 04:58:48;;;;;;;;;;;0.00;99.90;;;;;;5052545;28;20303;-62
2022/04/02 05:01:15;;;;;;;;;;;-0.10;99.90;;;;;;5052201;28;19921;-61
2022/04/02 05:03:43;;;;;;;;;;;0.00;99.90;;;;;;5052258;28;20012;-62
2022/04/02 05:06:10;;;;;;;;;;;-0.10;1.00;;;;;;5051588;28;19947;-62
2022/04/02 05:08:37;;;;;;;;;;;-0.10;1.00;;;;;;5052504;28;19968;-61
2022/04/02 05:11:04;;;;;;;;;;;-0.10;99.90;;;;;;5052230;28;19921;-61
2022/04/02 05:13:30;;;;;;;;;;;0.00;1.00;;;;;;5052435;28;19969;-60
2022/04/02 05:15:57;;;;;;;;;;;0.00;1.00;;;;;;5051563;28;19927;-62
2022/04/02 05:18:23;;;;;;;;;;;0.00;1.00;;;;;;5052507;28;20383;-62
2022/04/02 05:20:51;;;;;;;;;;;0.00;1.00;;;;;;5056609;28;19920;-56
2022/04/02 05:23:18;;;;;;;;;;;0.00;99.90;;;;;;5056030;28;19928;-61
2022/04/02 05:25:44;;;;;;;;;;;0.00;1.00;;;;;;5056013;28;20012;-61
2022/04/02 05:28:11;;;;;;;;;;;0.00;99.90;;;;;;5055823;28;20468;-62
2022/04/02 05:30:38;;;;;;;;;;;0.00;99.90;;;;;;5056308;28;19925;-62
2022/04/02 05:33:05;;;;;;;;;;;0.00;1.00;;;;;;5056410;28;19979;-60
2022/04/02 05:35:31;;;;;;;;;;;0.00;99.90;;;;;;5055897;28;20272;-61
2022/04/02 05:37:59;;;;;;;;;;;0.10;99.90;;;;;;5055545;28;19974;-61
2022/04/02 05:40:26;;;;;;;;;;;0.10;99.90;;;;;;5055861;28;19990;-60
2022/04/02 05:42:52;;;;;;;;;;;0.10;99.90;;;;;;5055843;28;19975;-59
2022/04/02 05:45:19;;;;;;;;;;;0.00;99.90;;;;;;5055638;28;19921;-61
2022/04/02 05:47:46;;;;;;;;;;;0.10;99.90;;;;;;5055363;28;19921;-62
2022/04/02 05:50:13;;;;;;;;;;;0.00;99.90;;;;;;5055776;28;19947;-61
2022/04/02 05:52:40;;;;;;;;;;;0.10;99.90;;;;;;5055627;28;19921;-62
2022/04/02 05:55:10;;;;;;;;;;;0.10;1.00;;;;;;5055996;28;19924;-62
2022/04/02 05:57:37;;;;;;;;;;;0.10;1.00;;;;;;5055174;28;19959;-62
2022/04/02 06:00:06;;;;;;;;;;;0.10;99.90;;;;;;5055817;28;19920;-60
2022/04/02 06:02:32;;;;;;;;;;;0.10;1.00;;;;;;5055229;28;20383;-60
2022/04/02 06:04:59;;;;;;;;;;;0.10;64.90;;;;;;5055442;28;20007;-59
2022/04/02 06:07:25;;;;;;;;;;;0.10;1.00;;;;;;5054845;28;19978;-61
2022/04/02 06:09:52;;;;;;;;;;;0.20;1.00;;;;;;5055828;28;19927;-58
2022/04/02 06:12:20;;;;;;;;;;;0.20;99.90;;;;;;5055371;28;19924;-60
2022/04/02 06:14:46;;;;;;;;;;;0.20;1.00;;;;;;5055325;28;19967;-61
2022/04/02 06:17:13;;;;;;;;;;;0.20;78.00;;;;;;5054630;28;19924;-58
2022/04/02 06:19:39;;;;;;;;;;;0.20;99.90;;;;;;5055006;28;19924;-60
2022/04/02 06:22:06;;;;;;;;;;;0.30;85.10;;;;;;5055175;28;19924;-60
2022/04/02 06:24:33;;;;;;;;;;;0.30;99.90;;;;;;5054781;28;20367;-61
2022/04/02 06:26:59;;;;;;;;;;;0.30;1.00;;;;;;5054737;28;19924;-57
2022/04/02 06:29:27;;;;;;;;;;;0.30;99.90;;;;;;5054771;28;20371;-60
2022/04/02 06:31:54;;;;;;;;;;;0.40;99.90;;;;;;5055016;28;19920;-60
2022/04/02 06:34:21;;;;;;;;;;;0.40;1.00;;;;;;5054793;28;20410;-58
2022/04/02 06:36:47;;;;;;;;;;;0.40;99.90;;;;;;5054516;28;19943;-61
2022/04/02 06:39:14;;;;;;;;;;;0.40;1.00;;;;;;5055137;28;19967;-60
2022/04/02 06:41:40;;;;;;;;;;;0.40;26.70;;;;;;5054583;28;19921;-59
2022/04/02 06:44:08;;;;;;;;;;;0.40;1.00;;;;;;5055016;28;20438;-60
2022/04/02 06:46:37;;;;;;;;;;;0.50;1.00;;;;;;5054288;28;19960;-61
2022/04/02 06:49:03;;;;;;;;;;;0.50;1.00;;;;;;5054677;28;19939;-64
2022/04/02 06:51:30;;;;;;;;;;;0.50;1.00;;;;;;5054910;28;19921;-62
2022/04/02 06:53:56;;;;;;;;;;;0.60;1.00;;;;;;5054641;28;19967;-59
2022/04/02 06:56:23;;;;;;;;;;;0.60;99.90;;;;;;5054094;28;19947;-61
2022/04/02 06:58:49;;;;;;;;;;;0.60;99.90;;;;;;5054358;28;19920;-61
2022/04/02 07:01:16;;;;;;;;;;;0.60;1.00;;;;;;5054709;28;19920;-61
2022/04/02 07:03:44;;;;;;;;;;;0.60;1.00;;;;;;5054213;28;19947;-59
2022/04/02 07:06:11;;;;;;;;;;;0.70;99.90;;;;;;5054105;28;19924;-60
2022/04/02 07:08:37;;;;;;;;;;;0.70;1.00;;;;;;5054309;28;19967;-62
2022/04/02 07:11:04;;;;;;;;;;;0.80;99.90;;;;;;5054376;28;20278;-61
2022/04/02 07:13:30;;;;;;;;;;;0.80;99.90;;;;;;5054232;28;19924;-61
2022/04/02 07:15:57;;;;;;;;;;;0.80;99.90;;;;;;5053337;28;20345;-61
2022/04/02 07:18:24;;;;;;;;;;;0.80;99.90;;;;;;5054432;28;20019;-61
2022/04/02 07:20:53;;;;;;;;;;;0.80;99.90;;;;;;5054152;28;19928;-61
2022/04/02 07:23:20;;;;;;;;;;;0.80;99.90;;;;;;5054234;28;20003;-62
2022/04/02 07:25:48;;;;;;;;;;;0.80;1.00;;;;;;5053881;28;19967;-62
2022/04/02 07:28:15;;;;;;;;;;;0.80;99.90;;;;;;5053744;28;19921;-62
2022/04/02 07:30:41;;;;;;;;;;;0.80;99.90;;;;;;5053722;28;19920;-62
2022/04/02 07:33:08;;;;;;;;;;;0.80;99.90;;;;;;5053826;28;19948;-65
2022/04/02 07:35:35;;;;;;;;;;;0.90;99.90;;;;;;5053967;28;19921;-62
2022/04/02 07:38:04;;;;;;;;;;;0.90;99.90;;;;;;5053822;28;19921;-62
2022/04/02 07:40:35;;;;;;;;;;;0.90;99.90;;;;;;5054055;28;19920;-62
2022/04/02 07:43:05;;;;;;;;;;;1.00;99.90;;;;;;5053044;28;19966;-62
2022/04/02 07:45:32;;;;;;;;;;;1.00;99.90;;;;;;5053983;28;19967;-62
2022/04/02 07:47:59;;;;;;;;;;;1.00;99.90;;;;;;5053204;28;20432;-62
2022/04/02 07:50:26;;;;;;;;;;;1.10;99.90;;;;;;5053706;28;20341;-62
2022/04/02 07:52:53;;;;;;;;;;;1.10;99.90;;;;;;5054298;28;19924;-62
2022/04/02 07:55:22;;;;;;;;;;;1.10;99.90;;;;;;5053861;28;19921;-62
2022/04/02 07:57:49;;;;;;;;;;;1.10;99.90;;;;;;5053480;28;19944;-61
2022/04/02 08:00:19;;;;;;;;;;;1.20;28.70;;;;;;5053752;28;20451;-62
2022/04/02 08:02:47;;;;;;;;;;;1.20;1.00;;;;;;5053778;28;19970;-63
2022/04/02 08:05:15;;;;;;;;;;;1.20;1.00;;;;;;5053192;28;19921;-59
2022/04/02 08:07:43;;;;;;;;;;;1.20;1.00;;;;;;5053516;28;20045;-59
2022/04/02 08:10:11;;;;;;;;;;;1.30;77.00;;;;;;5052966;28;19921;-60
2022/04/02 08:12:40;;;;;;;;;;;1.40;69.60;;;;;;5053529;28;19956;-60
2022/04/02 08:15:07;;;;;;;;;;;1.40;1.00;;;;;;5049678;28;20306;-60
2022/04/02 08:17:34;;;;;;;;;;;1.40;1.00;;;;;;5046797;28;19932;-61
2022/04/02 08:20:01;;;;;;;;;;;1.30;1.00;;;;;;5052470;28;20310;-61
2022/04/02 08:22:28;;;;;;;;;;;1.30;1.00;;;;;;5052514;28;19920;-61
2022/04/02 08:24:54;;;;;;;;;;;1.40;1.00;;;;;;5052144;28;20441;-61
2022/04/02 08:27:28;;;;;;;;;;;1.50;1.00;;;;;;5051361;28;19974;-61
2022/04/02 08:30:00;;;;;;;;;;;1.60;1.00;;;;;;5052496;28;19925;-60
2022/04/02 08:32:35;;;;;;;;;;;1.50;1.00;;;;;;5052638;28;19921;-60
2022/04/02 08:35:04;;;;;;;;;;;1.60;1.00;;;;;;5052940;28;20339;-61
2022/04/02 08:37:34;;;;;;;;;;;1.50;99.90;;;;;;5051780;28;19928;-62
2022/04/02 08:40:03;;;;;;;;;;;1.50;99.90;;;;;;5051908;28;19921;-62
2022/04/02 08:42:46;;;;;;;;;;;1.60;99.90;;;;;;5051945;28;20367;-62
2022/04/02 08:45:15;;;;;;;;;;;1.70;1.00;;;;;;5051889;28;19921;-61
2022/04/02 08:48:03;;;;;;;;;;;1.70;99.90;;;;;;5051293;28;19927;-62
2022/04/02 08:50:30;;;;;;;;;;;1.80;1.00;;;;;;5051947;28;19967;-61
2022/04/02 08:52:58;;;;;;;;;;;2.00;99.90;;;;;;5051436;28;19921;-61
2022/04/02 08:55:29;;;;;;;;;;;2.10;99.90;;;;;;5051704;28;20346;-59
2022/04/02 08:59:33;;;;;;;;;;;2.00;99.90;;;;;;5109788;27;19912;-57
2022/04/02 09:02:11;;;;;;;;;;;1.90;99.90;;;;;;5083650;27;19928;-56
2022/04/02 09:04:49;;;;;;;;;;;2.00;99.90;;;;;;5068542;28;19936;-58
2022/04/02 09:07:37;;;;;;;;;;;2.10;99.90;;;;;;5052252;28;20411;-60
2022/04/02 09:10:19;;;;;;;;;;;2.20;99.90;;;;;;5029961;28;19931;-60
2022/04/02 09:12:56;;;;;;;;;;;2.20;99.90;;;;;;5047197;28;19932;-59
2022/04/02 09:15:28;;;;;;;;;;;2.30;99.90;;;;;;5048878;28;19979;-59
2022/04/02 09:18:01;;;;;;;;;;;2.40;99.90;;;;;;5048616;28;19970;-57
2022/04/02 09:20:39;;;;;;;;;;;2.60;99.90;;;;;;5048794;28;20347;-59
2022/04/02 09:23:08;;;;;;;;;;;2.70;99.90;;;;;;5048320;28;19928;-58
2022/04/02 09:25:55;;;;;;;;;;;2.70;99.90;;;;;;5047714;28;19932;-62
2022/04/02 09:28:30;;;;;;;;;;;2.50;1.00;;;;;;5048579;28;20307;-57
2022/04/02 09:31:21;;;;;;;;;;;2.50;1.00;;;;;;5048538;28;19941;-57
2022/04/02 09:34:00;;;;;;;;;;;2.40;1.00;;;;;;5048839;28;20019;-58
2022/04/02 09:36:30;;;;;;;;;;;2.40;1.00;;;;;;5047740;28;19978;-56
2022/04/02 09:39:05;;;;;;;;;;;2.30;1.00;;;;;;5048664;28;19933;-58
2022/04/02 09:41:47;;;;;;;;;;;2.40;1.00;;;;;;5048714;28;20363;-57
2022/04/02 09:44:20;;;;;;;;;;;2.50;1.00;;;;;;5049089;28;19925;-58
2022/04/02 09:47:00;;;;;;;;;;;2.60;1.00;;;;;;5047930;28;19931;-58
2022/04/02 09:49:33;;;;;;;;;;;2.80;1.00;;;;;;5048163;28;19925;-57
2022/04/02 09:52:03;;;;;;;;;;;2.80;1.00;;;;;;5048475;28;19979;-55
2022/04/02 09:54:31;;;;;;;;;;;3.00;1.00;;;;;;5047213;28;19956;-56
2022/04/02 09:57:03;;;;;;;;;;;3.00;1.00;;;;;;5047524;28;19929;-58
2022/04/02 09:59:35;;;;;;;;;;;2.90;1.00;;;;;;5048111;28;19925;-56
2022/04/02 10:02:04;;;;;;;;;;;2.90;99.90;;;;;;5048126;28;19929;-59
2022/04/02 10:04:38;;;;;;;;;;;3.10;1.00;;;;;;5047905;28;20024;-59
2022/04/02 10:07:09;;;;;;;;;;;3.20;1.00;;;;;;5047443;28;19925;-57
2022/04/02 10:09:36;;;;;;;;;;;2.90;99.90;;;;;;5040815;28;20007;-58
2022/04/02 10:12:05;;;;;;;;;;;2.80;1.00;;;;;;5034486;28;20334;-56
2022/04/02 10:14:34;;;;;;;;;;;2.90;99.90;;;;;;5034547;28;19929;-59
2022/04/02 10:17:05;;;;;;;;;;;2.90;1.00;;;;;;5033705;28;19925;-57
2022/04/02 10:19:33;;;;;;;;;;;3.00;99.90;;;;;;5034240;28;20023;-59
2022/04/02 10:22:02;;;;;;;;;;;2.90;99.90;;;;;;5034389;28;19955;-54
2022/04/02 10:24:31;;;;;;;;;;;3.00;99.90;;;;;;5034682;28;20450;-57
2022/04/02 10:26:58;;;;;;;;;;;2.90;1.00;;;;;;5033949;28;19925;-58
2022/04/02 10:29:34;;;;;;;;;;;2.90;99.90;;;;;;5034245;28;19925;-59
2022/04/02 10:32:02;;;;;;;;;;;2.90;99.90;;;;;;5034990;28;19929;-59
2022/04/02 10:34:37;;;;;;;;;;;3.00;1.00;;;;;;5034964;28;20020;-60
2022/04/02 10:37:09;;;;;;;;;;;3.10;1.00;;;;;;5034077;28;19932;-60
2022/04/02 10:39:38;;;;;;;;;;;3.00;1.00;;;;;;5034611;28;19936;-60
2022/04/02 10:42:06;;;;;;;;;;;2.80;1.00;;;;;;5034233;28;19925;-61
2022/04/02 10:44:41;;;;;;;;;;;2.90;1.00;;;;;;5032146;28;19925;-59
2022/04/02 10:47:09;;;;;;;;;;;3.40;1.00;;;;;;5033545;28;19975;-58
2022/04/02 10:49:38;;;;;;;;;;;3.50;1.00;;;;;;5034095;28;19925;-60
2022/04/02 10:52:05;;;;;;;;;;;3.50;1.00;;;;;;5033759;28;20041;-60
2022/04/02 10:54:34;;;;;;;4.33;3.33;;;3.30;99.90;;;;;;5033636;28;20112;-61
2022/04/02 10:57:01;;;;;;;6.28;4.85;;;3.20;99.90;;;;;;5031223;28;20419;-60
2022/04/02 10:59:31;;;;;;;5.40;3.50;;;3.30;1.00;;;;;;5032546;28;20438;-59
2022/04/02 11:02:01;;;;;;;4.83;3.43;;;3.10;99.90;;;;;;5031356;28;20892;-56
2022/04/02 11:04:32;;;;;;;4.82;3.38;;;2.90;1.00;;;;;;5029251;28;20893;-59
2022/04/02 11:07:01;;;;;;;4.93;3.90;;;3.00;1.00;;;;;;5031271;28;20423;-59
2022/04/02 11:09:32;;;;;;;5.25;4.40;;;3.00;1.00;;;;;;5031042;28;20425;-60
2022/04/02 11:12:04;;;;;;;6.28;4.38;;;2.90;1.00;;;;;;5032280;28;20449;-61
2022/04/02 11:14:38;;;;;;;6.22;4.55;;;2.80;1.00;;;;;;5031699;28;20771;-59
2022/04/02 11:17:05;;;;;;;4.88;4.20;;;2.80;1.00;;;;;;5031338;28;20426;-60
2022/04/02 11:22:26;;;;;;;5.72;4.65;;;2.70;99.90;;;;;;5030810;28;20402;-60
2022/04/02 11:25:01;;;;;;;5.50;4.10;;;2.80;99.90;;;;;;5031212;28;20450;-61
2022/04/02 11:27:30;;;;;;;4.28;2.58;;;3.00;98.60;;;;;;5031089;28;20426;-59
2022/04/02 11:30:01;;;;;;;;;;;2.80;49.30;;;;;;5032877;28;20056;-56
2022/04/02 11:32:29;;;;;;;;;;;2.70;99.90;;;;;;5033477;28;19967;-58
2022/04/02 11:34:59;;;;;;;;;;;2.80;99.90;;;;;;5033668;28;19921;-62
2022/04/02 11:37:30;;;;;;;;;;;2.80;1.00;;;;;;5032923;28;19921;-59
2022/04/02 11:39:59;;;;;;;;;;;2.70;1.00;;;;;;5033086;28;20020;-59
2022/04/02 11:42:27;;;;;;;;;;;2.60;1.00;;;;;;5029076;28;19928;-60
2022/04/02 11:44:53;;;;;;;;;;;2.50;1.00;;;;;;5032798;28;19925;-59
2022/04/02 11:47:27;;;;;;;3.83;3.40;;;2.50;99.90;;;;;;5031976;28;20284;-60
2022/04/02 11:50:02;;;;;;;6.13;5.20;;;2.20;1.00;;;;;;5031329;28;20755;-59
2022/04/02 11:52:49;;;;;;;6.90;5.50;;;2.20;10.00;;;;;;5031117;28;21028;-58
2022/04/02 11:55:16;;;;;;;6.83;5.40;;;2.40;1.00;;;;;;5030904;28;20498;-58
2022/04/02 11:57:57;;;;;;;6.83;5.60;;;2.50;1.00;;;;;;5030410;28;20525;-58
2022/04/02 12:00:26;;;;;;;6.25;5.28;;;2.50;99.90;;;;;;5031024;28;20777;-58
2022/04/02 12:02:53;;;;;;;6.97;5.05;;;2.60;99.90;;;;;;5030960;28;20809;-57
2022/04/02 12:05:21;;;;;;;5.90;5.30;;;2.50;1.00;;;;;;5030731;28;20419;-57
2022/04/02 12:07:51;;;;;;;6.13;4.43;;;2.50;1.00;;;;;;5030083;28;20501;-58
2022/04/02 12:10:20;;;;;;;6.97;4.90;;;2.60;1.00;;;;;;5030913;28;20415;-57
2022/04/02 12:12:48;;;;;;;6.88;4.63;;;2.80;99.90;;;;;;5031055;28;20426;-57
2022/04/02 12:15:16;;;;;;;5.72;5.13;;;2.70;99.90;;;;;;5030446;28;20716;-55
2022/04/02 12:17:47;;;;;;;7.20;4.40;;;2.90;99.90;;;;;;5030183;28;20419;-58
2022/04/02 12:20:19;;;;;;;5.57;4.32;;;3.00;99.90;;;;;;5030270;28;20928;-58
2022/04/02 12:22:47;;;;;;;6.03;4.97;;;2.70;99.90;;;;;;5030691;28;20497;-58
2022/04/02 12:25:21;;;;;;;5.60;4.07;;;2.70;99.90;;;;;;5030473;28;20517;-57
2022/04/02 12:27:50;;;;;;;6.35;5.07;;;2.70;99.90;;;;;;5029982;28;20517;-55
2022/04/02 12:30:21;;;;;;;6.68;4.80;;;2.60;99.90;;;;;;5030603;28;20568;-57
2022/04/02 12:32:47;;;;;;;4.45;3.20;;;2.50;1.00;;;;;;5030003;28;20419;-58
2022/04/02 12:35:24;;;;;;;7.10;5.00;;;2.50;99.90;;;;;;5030643;28;20415;-58
2022/04/02 12:37:52;;;;;;;6.43;5.20;;;2.60;1.00;;;;;;5029941;28;20419;-56
2022/04/02 12:40:23;;;;;;;7.07;5.10;;;2.70;1.00;;;;;;5030193;28;20909;-58
2022/04/02 12:42:51;;;;;;;7.22;5.25;;;2.80;99.90;;;;;;5030448;28;20901;-53
2022/04/02 12:45:20;;;;;;;7.38;4.78;;;2.90;99.90;;;;;;5029449;28;20468;-57
2022/04/02 12:47:57;;;;;;;5.82;4.63;;;2.90;99.90;;;;;;5029820;28;20426;-55
2022/04/02 12:50:25;;;;;;;6.80;4.72;;;3.00;11.50;;;;;;5029837;28;20468;-57
2022/04/02 12:52:52;;;;;;;6.03;4.50;;;3.00;18.20;;;;;;5030459;28;20419;-56
2022/04/02 12:55:22;;;;;;;3.75;3.30;;;3.00;1.00;;;;;;5030067;28;20430;-58
2022/04/02 12:58:05;;;;;;;6.45;4.78;;;3.10;1.00;;;;;;5029339;28;20427;-57
2022/04/02 13:00:35;;;;;;;7.50;5.00;;;3.00;1.00;;;;;;5030368;28;20494;-55
2022/04/02 13:03:03;;;;;;;5.90;4.80;;;3.20;1.00;;;;;;5030233;28;20426;-56
2022/04/02 13:05:45;;;;;;;5.93;4.60;;;3.40;1.00;;;;;;5029910;28;20902;-58
2022/04/02 13:08:24;;;;;;;6.88;5.00;;;3.50;1.00;;;;;;5029214;28;20422;-55
2022/04/02 13:10:55;;;;;;;4.18;3.30;;;3.70;1.00;;;;;;5030344;28;20446;-57
2022/04/02 13:13:35;;;;;;;4.78;4.00;;;3.70;99.90;;;;;;5029964;28;20497;-57
2022/04/02 13:16:03;;;;;;;5.00;3.92;;;3.70;99.90;;;;;;5029383;28;20473;-55
2022/04/02 13:21:19;;;;;;;6.03;4.35;;;4.00;1.00;;;;;;5030205;28;20417;-54
2022/04/02 13:24:26;;;;;;;6.88;4.07;;;3.90;99.90;;;;;;5029666;28;20415;-56
2022/04/02 13:27:10;;;;;;;6.25;4.57;;;4.00;99.90;;;;;;5029116;28;20461;-55
2022/04/02 13:29:55;;;;;;;5.72;4.30;;;4.00;1.00;;;;;;5029620;28;20414;-55
2022/04/02 13:32:44;;;;;;;6.38;4.30;;;4.10;99.90;;;;;;5029981;28;20489;-55
2022/04/02 13:35:22;;;;;;;5.82;4.38;;;4.10;99.90;;;;;;5006816;28;20478;-57
2022/04/02 13:38:00;;;;;;;4.28;3.63;;;4.00;99.90;;;;;;5029204;28;20928;-56
2022/04/02 13:40:30;;;;;;;5.93;4.43;;;3.90;99.90;;;;;;5029707;28;20434;-54
2022/04/02 13:43:03;;;;;;;7.13;4.50;;;3.90;99.90;;;;;;5029888;28;20451;-56
2022/04/02 13:45:34;;;;;;;4.88;3.70;;;3.80;99.90;;;;;;5032354;28;20415;-56
2022/04/02 13:48:03;;;;;;;5.20;4.27;;;4.10;99.90;;;;;;5033235;28;20407;-54
2022/04/02 13:50:30;;;;;;;5.88;4.57;;;4.30;99.90;;;;;;5033444;28;20418;-56
2022/04/02 13:53:04;;;;;;;5.68;4.30;;;4.40;99.90;;;;;;5033335;28;20494;-56
2022/04/02 13:55:33;;;;;;;6.50;4.80;;;5.00;99.90;;;;;;5033346;28;20418;-56
2022/04/02 13:58:04;;;;;;;7.35;4.20;;;4.50;99.90;;;;;;5032553;28;20912;-58
2022/04/02 14:00:36;;;;;;;5.40;4.30;;;4.80;99.90;;;;;;5033477;28;20518;-57
2022/04/02 14:03:06;;;;;;;5.18;4.15;;;5.10;99.90;;;;;;5033448;28;20502;-58
2022/04/02 14:05:37;;;;;;;6.10;4.20;;;5.30;99.90;;;;;;5033173;28;20473;-57
2022/04/02 14:08:07;;;;;;;6.32;4.00;;;5.30;99.90;;;;;;5032787;28;20433;-58
2022/04/02 14:10:38;;;;;;;5.75;3.95;;;5.50;99.90;;;;;;5033070;28;20415;-58
2022/04/02 14:13:16;;;;;;;5.03;3.90;;;5.10;99.90;;;;;;5033488;28;20422;-54
2022/04/02 14:15:50;;;;;;;4.35;3.90;;;4.80;99.90;;;;;;5032909;28;20472;-61
2022/04/02 14:18:22;;;;;;;5.93;4.15;;;4.70;99.90;;;;;;5032958;28;20786;-60
2022/04/02 14:20:53;;;;;;;6.03;4.13;;;4.80;99.90;;;;;;5032814;28;20431;-61
2022/04/02 14:23:23;;;;;;;5.68;4.30;;;4.90;99.90;;;;;;5032866;28;20417;-61
2022/04/02 14:26:28;;;;;;;6.03;4.07;;;5.00;99.90;;;;;;5032768;28;20429;-62
2022/04/02 14:29:23;;;;;;;6.30;4.35;;;4.90;99.90;;;;;;5010053;28;20573;-58
2022/04/02 14:32:16;;;;;;;6.82;4.35;;;4.90;99.90;;;;;;5032775;28;20473;-60
2022/04/02 14:34:52;;;;;;;7.00;4.18;;;4.90;99.90;;;;;;5032813;28;20427;-59